sensor_id;sensor_type;location;lat;lon;timestamp;temperature;humidity
22430;DHT22;11382;48.086;11.632;2023-03-11T00:00:12;2.80;99.90
22430;DHT22;11382;48.086;11.632;2023-03-11T00:02:45;2.80;99.90
22430;DHT22;11382;48.086;11.632;2023-03-11T00:05:16;2.80;99.90
22430;DHT22;11382;48.086;11.632;2023-03-11T00:07:44;2.80;99.90
22430;DHT22;11382;48.086;11.632;2023-03-11T00:10:14;2.80;99.90
22430;DHT22;11382;48.086;11.632;2023-03-11T00:12:42;2.80;99.90
22430;DHT22;11382;48.086;11.632;2023-03-11T00:15:11;2.80;99.90
22430;DHT22;11382;48.086;11.632;2023-03-11T00:17:39;2.80;99.90
22430;DHT22;11382;48.086;11.632;2023-03-11T00:20:15;2.70;99.90
22430;DHT22;11382;48.086;11.632;2023-03-11T00:22:44;2.70;99.90
22430;DHT22;11382;48.086;11.632;2023-03-11T00:25:13;2.60;99.90
22430;DHT22;11382;48.086;11.632;2023-03-11T00:27:41;2.50;99.90
22430;DHT22;11382;48.086;11.632;2023-03-11T00:30:10;2.40;99.90
22430;DHT22;11382;48.086;11.632;2023-03-11T00:32:38;2.40;99.90
22430;DHT22;11382;48.086;11.632;2023-03-11T00:35:10;2.40;99.90
22430;DHT22;11382;48.086;11.632;2023-03-11T00:37:39;2.40;99.90
22430;DHT22;11382;48.086;11.632;2023-03-11T00:40:11;2.30;99.90
22430;DHT22;11382;48.086;11.632;2023-03-11T00:42:39;2.30;99.90
22430;DHT22;11382;48.086;11.632;2023-03-11T00:45:09;2.20;99.90
22430;DHT22;11382;48.086;11.632;2023-03-11T00:47:38;2.20;99.90
22430;DHT22;11382;48.086;11.632;2023-03-11T00:50:07;2.20;99.90
22430;DHT22;11382;48.086;11.632;2023-03-11T00:52:39;2.20;99.90
22430;DHT22;11382;48.086;11.632;2023-03-11T00:55:08;2.10;99.90
22430;DHT22;11382;48.086;11.632;2023-03-11T00:57:36;2.10;99.90
22430;DHT22;11382;48.086;11.632;2023-03-11T01:00:07;2.10;99.90
22430;DHT22;11382;48.086;11.632;2023-03-11T01:02:37;2.10;99.90
22430;DHT22;11382;48.086;11.632;2023-03-11T01:05:06;2.10;99.90
22430;DHT22;11382;48.086;11.632;2023-03-11T01:07:35;2.10;99.90
22430;DHT22;11382;48.086;11.632;2023-03-11T01:10:06;2.10;99.90
22430;DHT22;11382;48.086;11.632;2023-03-11T01:12:35;2.10;99.90
22430;DHT22;11382;48.086;11.632;2023-03-11T01:15:04;2.20;99.90
22430;DHT22;11382;48.086;11.632;2023-03-11T01:17:32;2.10;99.90
22430;DHT22;11382;48.086;11.632;2023-03-11T01:20:00;2.10;99.90
22430;DHT22;11382;48.086;11.632;2023-03-11T01:22:28;2.10;99.90
22430;DHT22;11382;48.086;11.632;2023-03-11T01:24:56;2.10;99.90
22430;DHT22;11382;48.086;11.632;2023-03-11T01:27:25;2.00;99.90
22430;DHT22;11382;48.086;11.632;2023-03-11T01:29:54;2.10;99.90
22430;DHT22;11382;48.086;11.632;2023-03-11T01:32:23;2.10;99.90
22430;DHT22;11382;48.086;11.632;2023-03-11T01:34:51;2.10;99.90
22430;DHT22;11382;48.086;11.632;2023-03-11T01:37:19;2.00;99.90
22430;DHT22;11382;48.086;11.632;2023-03-11T01:39:47;2.00;99.90
22430;DHT22;11382;48.086;11.632;2023-03-11T01:42:15;2.00;99.90
22430;DHT22;11382;48.086;11.632;2023-03-11T01:44:45;2.10;99.90
22430;DHT22;11382;48.086;11.632;2023-03-11T01:47:44;2.00;99.90
22430;DHT22;11382;48.086;11.632;2023-03-11T01:50:12;2.00;99.90
22430;DHT22;11382;48.086;11.632;2023-03-11T01:52:41;2.00;99.90
22430;DHT22;11382;48.086;11.632;2023-03-11T01:55:11;2.00;99.90
22430;DHT22;11382;48.086;11.632;2023-03-11T01:57:41;2.00;99.90
22430;DHT22;11382;48.086;11.632;2023-03-11T02:00:13;2.00;99.90
22430;DHT22;11382;48.086;11.632;2023-03-11T02:02:45;2.00;99.90
22430;DHT22;11382;48.086;11.632;2023-03-11T02:05:16;2.00;99.90
22430;DHT22;11382;48.086;11.632;2023-03-11T02:07:45;1.90;99.90
22430;DHT22;11382;48.086;11.632;2023-03-11T02:10:16;1.90;99.90
22430;DHT22;11382;48.086;11.632;2023-03-11T02:12:45;1.90;99.90
22430;DHT22;11382;48.086;11.632;2023-03-11T02:15:23;1.80;99.90
22430;DHT22;11382;48.086;11.632;2023-03-11T02:17:51;1.80;99.90
22430;DHT22;11382;48.086;11.632;2023-03-11T02:20:31;1.70;99.90
22430;DHT22;11382;48.086;11.632;2023-03-11T02:23:08;1.70;99.90
22430;DHT22;11382;48.086;11.632;2023-03-11T02:25:41;1.60;99.90
22430;DHT22;11382;48.086;11.632;2023-03-11T02:28:15;1.60;99.90
22430;DHT22;11382;48.086;11.632;2023-03-11T02:30:45;1.50;99.90
22430;DHT22;11382;48.086;11.632;2023-03-11T02:33:14;1.50;99.90
22430;DHT22;11382;48.086;11.632;2023-03-11T02:35:45;1.50;99.90
22430;DHT22;11382;48.086;11.632;2023-03-11T02:38:13;1.50;99.90
22430;DHT22;11382;48.086;11.632;2023-03-11T02:40:52;1.50;99.90
22430;DHT22;11382;48.086;11.632;2023-03-11T02:43:28;1.50;99.90
22430;DHT22;11382;48.086;11.632;2023-03-11T02:46:00;1.50;99.90
22430;DHT22;11382;48.086;11.632;2023-03-11T02:48:29;1.40;99.90
22430;DHT22;11382;48.086;11.632;2023-03-11T02:50:59;1.40;99.90
22430;DHT22;11382;48.086;11.632;2023-03-11T02:53:30;1.50;99.90
22430;DHT22;11382;48.086;11.632;2023-03-11T02:56:00;1.40;99.90
22430;DHT22;11382;48.086;11.632;2023-03-11T02:58:29;1.40;99.90
22430;DHT22;11382;48.086;11.632;2023-03-11T03:00:57;1.40;99.90
22430;DHT22;11382;48.086;11.632;2023-03-11T03:03:26;1.40;99.90
22430;DHT22;11382;48.086;11.632;2023-03-11T03:05:53;1.30;99.90
22430;DHT22;11382;48.086;11.632;2023-03-11T03:08:21;1.40;99.90
22430;DHT22;11382;48.086;11.632;2023-03-11T03:10:49;1.40;99.90
22430;DHT22;11382;48.086;11.632;2023-03-11T03:13:17;1.30;99.90
22430;DHT22;11382;48.086;11.632;2023-03-11T03:15:47;1.30;99.90
22430;DHT22;11382;48.086;11.632;2023-03-11T03:18:15;1.20;99.90
22430;DHT22;11382;48.086;11.632;2023-03-11T03:20:43;1.30;99.90
22430;DHT22;11382;48.086;11.632;2023-03-11T03:23:13;1.20;99.90
22430;DHT22;11382;48.086;11.632;2023-03-11T03:25:41;1.20;99.90
22430;DHT22;11382;48.086;11.632;2023-03-11T03:28:10;1.20;99.90
22430;DHT22;11382;48.086;11.632;2023-03-11T03:30:41;1.20;99.90
22430;DHT22;11382;48.086;11.632;2023-03-11T03:33:12;1.10;99.90
22430;DHT22;11382;48.086;11.632;2023-03-11T03:35:42;1.10;99.90
22430;DHT22;11382;48.086;11.632;2023-03-11T03:38:18;1.10;99.90
22430;DHT22;11382;48.086;11.632;2023-03-11T03:40:48;1.10;99.90
22430;DHT22;11382;48.086;11.632;2023-03-11T03:43:19;1.10;99.90
22430;DHT22;11382;48.086;11.632;2023-03-11T03:45:54;1.10;99.90
22430;DHT22;11382;48.086;11.632;2023-03-11T03:48:25;1.10;99.90
22430;DHT22;11382;48.086;11.632;2023-03-11T03:50:54;1.00;99.90
22430;DHT22;11382;48.086;11.632;2023-03-11T03:53:22;1.00;99.90
22430;DHT22;11382;48.086;11.632;2023-03-11T03:55:50;1.00;99.90
22430;DHT22;11382;48.086;11.632;2023-03-11T03:58:20;1.00;99.90
22430;DHT22;11382;48.086;11.632;2023-03-11T04:00:48;1.00;99.90
22430;DHT22;11382;48.086;11.632;2023-03-11T04:03:16;0.90;99.90
22430;DHT22;11382;48.086;11.632;2023-03-11T04:05:52;0.90;99.90
22430;DHT22;11382;48.086;11.632;2023-03-11T04:08:20;0.90;99.90
22430;DHT22;11382;48.086;11.632;2023-03-11T04:10:55;0.90;99.90
22430;DHT22;11382;48.086;11.632;2023-03-11T04:13:25;0.90;99.90
22430;DHT22;11382;48.086;11.632;2023-03-11T04:15:53;0.90;99.90
22430;DHT22;11382;48.086;11.632;2023-03-11T04:18:21;0.90;99.90
22430;DHT22;11382;48.086;11.632;2023-03-11T04:20:49;0.90;99.90
22430;DHT22;11382;48.086;11.632;2023-03-11T04:23:20;0.80;99.90
22430;DHT22;11382;48.086;11.632;2023-03-11T04:25:48;0.80;99.90
22430;DHT22;11382;48.086;11.632;2023-03-11T04:28:16;0.80;99.90
22430;DHT22;11382;48.086;11.632;2023-03-11T04:30:45;0.80;99.90
22430;DHT22;11382;48.086;11.632;2023-03-11T04:33:14;0.70;99.90
22430;DHT22;11382;48.086;11.632;2023-03-11T04:35:42;0.70;99.90
22430;DHT22;11382;48.086;11.632;2023-03-11T04:38:10;0.70;99.90
22430;DHT22;11382;48.086;11.632;2023-03-11T04:40:39;0.60;99.90
22430;DHT22;11382;48.086;11.632;2023-03-11T04:43:08;0.60;99.90
22430;DHT22;11382;48.086;11.632;2023-03-11T04:45:37;0.70;99.90
22430;DHT22;11382;48.086;11.632;2023-03-11T04:48:06;0.60;99.90
22430;DHT22;11382;48.086;11.632;2023-03-11T04:50:36;0.60;99.90
22430;DHT22;11382;48.086;11.632;2023-03-11T04:53:04;0.60;99.90
22430;DHT22;11382;48.086;11.632;2023-03-11T04:55:33;0.60;99.90
22430;DHT22;11382;48.086;11.632;2023-03-11T04:58:02;0.60;99.90
22430;DHT22;11382;48.086;11.632;2023-03-11T05:00:31;0.60;99.90
22430;DHT22;11382;48.086;11.632;2023-03-11T05:03:04;0.60;99.90
22430;DHT22;11382;48.086;11.632;2023-03-11T05:05:33;0.60;99.90
22430;DHT22;11382;48.086;11.632;2023-03-11T05:08:01;0.70;99.90
22430;DHT22;11382;48.086;11.632;2023-03-11T05:10:30;0.60;99.90
22430;DHT22;11382;48.086;11.632;2023-03-11T05:13:03;0.70;99.90
22430;DHT22;11382;48.086;11.632;2023-03-11T05:15:34;0.70;99.90
22430;DHT22;11382;48.086;11.632;2023-03-11T05:18:04;0.80;99.90
22430;DHT22;11382;48.086;11.632;2023-03-11T05:20:35;0.80;99.90
22430;DHT22;11382;48.086;11.632;2023-03-11T05:23:03;0.90;99.90
22430;DHT22;11382;48.086;11.632;2023-03-11T05:25:33;0.90;99.90
22430;DHT22;11382;48.086;11.632;2023-03-11T05:28:04;0.90;99.90
22430;DHT22;11382;48.086;11.632;2023-03-11T05:30:37;0.90;99.90
22430;DHT22;11382;48.086;11.632;2023-03-11T05:33:05;1.00;99.90
22430;DHT22;11382;48.086;11.632;2023-03-11T05:35:34;1.00;99.90
22430;DHT22;11382;48.086;11.632;2023-03-11T05:38:02;1.10;99.90
22430;DHT22;11382;48.086;11.632;2023-03-11T05:40:31;1.00;99.90
22430;DHT22;11382;48.086;11.632;2023-03-11T05:43:00;1.10;99.90
22430;DHT22;11382;48.086;11.632;2023-03-11T05:45:32;1.10;99.90
22430;DHT22;11382;48.086;11.632;2023-03-11T05:48:01;1.10;99.90
22430;DHT22;11382;48.086;11.632;2023-03-11T05:50:29;1.10;99.90
22430;DHT22;11382;48.086;11.632;2023-03-11T05:52:58;1.10;99.90
22430;DHT22;11382;48.086;11.632;2023-03-11T05:55:28;1.10;99.90
22430;DHT22;11382;48.086;11.632;2023-03-11T05:57:57;1.10;99.90
22430;DHT22;11382;48.086;11.632;2023-03-11T06:00:25;1.10;99.90
22430;DHT22;11382;48.086;11.632;2023-03-11T06:02:58;1.10;99.90
22430;DHT22;11382;48.086;11.632;2023-03-11T06:05:27;1.10;99.90
22430;DHT22;11382;48.086;11.632;2023-03-11T06:07:55;1.10;99.90
22430;DHT22;11382;48.086;11.632;2023-03-11T06:10:23;1.10;99.90
22430;DHT22;11382;48.086;11.632;2023-03-11T06:12:51;1.10;99.90
22430;DHT22;11382;48.086;11.632;2023-03-11T06:15:29;1.10;99.90
22430;DHT22;11382;48.086;11.632;2023-03-11T06:17:59;1.10;99.90
22430;DHT22;11382;48.086;11.632;2023-03-11T06:20:27;1.10;99.90
22430;DHT22;11382;48.086;11.632;2023-03-11T06:22:55;1.20;99.90
22430;DHT22;11382;48.086;11.632;2023-03-11T06:25:24;1.20;99.90
22430;DHT22;11382;48.086;11.632;2023-03-11T06:27:53;1.20;99.90
22430;DHT22;11382;48.086;11.632;2023-03-11T06:30:23;1.20;99.90
22430;DHT22;11382;48.086;11.632;2023-03-11T06:33:00;1.20;99.90
22430;DHT22;11382;48.086;11.632;2023-03-11T06:35:28;1.20;99.90
22430;DHT22;11382;48.086;11.632;2023-03-11T06:37:56;1.20;99.90
22430;DHT22;11382;48.086;11.632;2023-03-11T06:40:24;1.20;99.90
22430;DHT22;11382;48.086;11.632;2023-03-11T06:42:52;1.20;99.90
22430;DHT22;11382;48.086;11.632;2023-03-11T06:45:22;1.20;99.90
22430;DHT22;11382;48.086;11.632;2023-03-11T06:47:51;1.30;99.90
22430;DHT22;11382;48.086;11.632;2023-03-11T06:50:21;1.40;99.90
22430;DHT22;11382;48.086;11.632;2023-03-11T06:52:50;1.50;99.90
22430;DHT22;11382;48.086;11.632;2023-03-11T06:55:18;1.70;99.90
22430;DHT22;11382;48.086;11.632;2023-03-11T06:57:47;1.80;99.90
22430;DHT22;11382;48.086;11.632;2023-03-11T07:00:16;2.00;99.90
22430;DHT22;11382;48.086;11.632;2023-03-11T07:02:49;2.20;99.90
22430;DHT22;11382;48.086;11.632;2023-03-11T07:05:18;2.30;99.90
22430;DHT22;11382;48.086;11.632;2023-03-11T07:07:52;2.50;99.90
22430;DHT22;11382;48.086;11.632;2023-03-11T07:10:22;2.40;99.90
22430;DHT22;11382;48.086;11.632;2023-03-11T07:12:50;2.40;99.90
22430;DHT22;11382;48.086;11.632;2023-03-11T07:15:18;2.30;99.90
22430;DHT22;11382;48.086;11.632;2023-03-11T07:17:46;2.50;99.90
22430;DHT22;11382;48.086;11.632;2023-03-11T07:20:14;2.50;99.90
22430;DHT22;11382;48.086;11.632;2023-03-11T07:22:42;2.90;99.90
22430;DHT22;11382;48.086;11.632;2023-03-11T07:25:11;3.30;99.90
22430;DHT22;11382;48.086;11.632;2023-03-11T07:28:04;3.80;99.90
22430;DHT22;11382;48.086;11.632;2023-03-11T07:30:32;3.60;99.90
22430;DHT22;11382;48.086;11.632;2023-03-11T07:33:00;3.40;99.90
22430;DHT22;11382;48.086;11.632;2023-03-11T07:35:28;3.20;99.90
22430;DHT22;11382;48.086;11.632;2023-03-11T07:37:56;3.50;99.90
22430;DHT22;11382;48.086;11.632;2023-03-11T07:40:25;4.40;99.90
22430;DHT22;11382;48.086;11.632;2023-03-11T07:42:53;4.00;99.90
22430;DHT22;11382;48.086;11.632;2023-03-11T07:45:22;4.40;99.90
22430;DHT22;11382;48.086;11.632;2023-03-11T07:47:50;5.70;99.90
22430;DHT22;11382;48.086;11.632;2023-03-11T07:50:18;6.50;99.90
22430;DHT22;11382;48.086;11.632;2023-03-11T07:52:47;7.60;99.70
22430;DHT22;11382;48.086;11.632;2023-03-11T07:55:16;8.00;96.90
22430;DHT22;11382;48.086;11.632;2023-03-11T07:57:47;8.20;96.40
22430;DHT22;11382;48.086;11.632;2023-03-11T08:00:17;8.30;95.70
22430;DHT22;11382;48.086;11.632;2023-03-11T08:02:45;8.40;95.00
22430;DHT22;11382;48.086;11.632;2023-03-11T08:05:13;8.60;93.30
22430;DHT22;11382;48.086;11.632;2023-03-11T08:07:41;9.30;92.70
22430;DHT22;11382;48.086;11.632;2023-03-11T08:10:10;10.00;91.30
22430;DHT22;11382;48.086;11.632;2023-03-11T08:12:38;10.20;89.60
22430;DHT22;11382;48.086;11.632;2023-03-11T08:15:09;9.50;89.10
22430;DHT22;11382;48.086;11.632;2023-03-11T08:17:37;8.90;90.30
22430;DHT22;11382;48.086;11.632;2023-03-11T08:20:06;9.20;90.90
22430;DHT22;11382;48.086;11.632;2023-03-11T08:22:35;10.10;90.00
22430;DHT22;11382;48.086;11.632;2023-03-11T08:25:14;10.80;86.30
22430;DHT22;11382;48.086;11.632;2023-03-11T08:27:42;10.70;86.80
22430;DHT22;11382;48.086;11.632;2023-03-11T08:30:13;10.10;85.20
22430;DHT22;11382;48.086;11.632;2023-03-11T08:32:41;9.00;89.00
22430;DHT22;11382;48.086;11.632;2023-03-11T08:35:09;8.10;91.00
22430;DHT22;11382;48.086;11.632;2023-03-11T08:37:37;7.90;90.90
22430;DHT22;11382;48.086;11.632;2023-03-11T08:40:06;6.90;91.70
22430;DHT22;11382;48.086;11.632;2023-03-11T08:42:36;6.60;93.50
22430;DHT22;11382;48.086;11.632;2023-03-11T08:45:05;7.20;93.20
22430;DHT22;11382;48.086;11.632;2023-03-11T08:47:35;8.80;91.70
22430;DHT22;11382;48.086;11.632;2023-03-11T08:50:04;10.30;90.40
22430;DHT22;11382;48.086;11.632;2023-03-11T08:52:32;11.30;85.90
22430;DHT22;11382;48.086;11.632;2023-03-11T08:54:59;11.10;85.50
22430;DHT22;11382;48.086;11.632;2023-03-11T08:57:28;10.60;84.80
22430;DHT22;11382;48.086;11.632;2023-03-11T08:59:56;9.70;85.30
22430;DHT22;11382;48.086;11.632;2023-03-11T09:02:25;10.30;86.30
22430;DHT22;11382;48.086;11.632;2023-03-11T09:04:54;10.30;84.20
22430;DHT22;11382;48.086;11.632;2023-03-11T09:07:22;10.10;82.60
22430;DHT22;11382;48.086;11.632;2023-03-11T09:09:50;10.30;83.10
22430;DHT22;11382;48.086;11.632;2023-03-11T09:12:18;10.80;81.70
22430;DHT22;11382;48.086;11.632;2023-03-11T09:14:46;11.50;80.00
22430;DHT22;11382;48.086;11.632;2023-03-11T09:17:14;12.50;78.10
22430;DHT22;11382;48.086;11.632;2023-03-11T09:19:43;11.40;77.20
22430;DHT22;11382;48.086;11.632;2023-03-11T09:22:12;10.70;79.30
22430;DHT22;11382;48.086;11.632;2023-03-11T09:24:40;11.00;79.80
22430;DHT22;11382;48.086;11.632;2023-03-11T09:27:08;10.20;78.50
22430;DHT22;11382;48.086;11.632;2023-03-11T09:29:36;10.30;79.60
22430;DHT22;11382;48.086;11.632;2023-03-11T09:32:04;10.70;78.70
22430;DHT22;11382;48.086;11.632;2023-03-11T09:34:32;11.60;78.00
22430;DHT22;11382;48.086;11.632;2023-03-11T09:37:00;12.10;75.20
22430;DHT22;11382;48.086;11.632;2023-03-11T09:39:30;12.30;74.10
22430;DHT22;11382;48.086;11.632;2023-03-11T09:42:01;12.70;72.30
22430;DHT22;11382;48.086;11.632;2023-03-11T09:44:35;12.70;74.30
22430;DHT22;11382;48.086;11.632;2023-03-11T09:47:22;13.90;69.50
22430;DHT22;11382;48.086;11.632;2023-03-11T09:50:16;13.60;68.30
22430;DHT22;11382;48.086;11.632;2023-03-11T09:52:54;13.10;69.70
22430;DHT22;11382;48.086;11.632;2023-03-11T09:55:33;14.70;67.80
22430;DHT22;11382;48.086;11.632;2023-03-11T09:58:12;15.40;64.40
22430;DHT22;11382;48.086;11.632;2023-03-11T10:00:41;16.40;62.60
22430;DHT22;11382;48.086;11.632;2023-03-11T10:03:22;16.40;62.20
22430;DHT22;11382;48.086;11.632;2023-03-11T10:05:54;16.60;61.10
22430;DHT22;11382;48.086;11.632;2023-03-11T10:08:26;16.80;59.70
22430;DHT22;11382;48.086;11.632;2023-03-11T10:11:02;16.90;58.50
22430;DHT22;11382;48.086;11.632;2023-03-11T10:13:37;16.80;58.20
22430;DHT22;11382;48.086;11.632;2023-03-11T10:16:13;16.00;57.50
22430;DHT22;11382;48.086;11.632;2023-03-11T10:18:49;15.00;58.80
22430;DHT22;11382;48.086;11.632;2023-03-11T10:21:29;14.10;59.50
22430;DHT22;11382;48.086;11.632;2023-03-11T10:24:15;14.10;61.80
22430;DHT22;11382;48.086;11.632;2023-03-11T10:26:48;13.30;60.00
22430;DHT22;11382;48.086;11.632;2023-03-11T10:29:19;13.70;61.30
22430;DHT22;11382;48.086;11.632;2023-03-11T10:31:55;14.30;60.40
22430;DHT22;11382;48.086;11.632;2023-03-11T10:34:28;14.60;58.80
22430;DHT22;11382;48.086;11.632;2023-03-11T10:37:02;13.70;58.40
22430;DHT22;11382;48.086;11.632;2023-03-11T10:39:32;12.70;60.40
22430;DHT22;11382;48.086;11.632;2023-03-11T10:42:03;13.20;61.60
22430;DHT22;11382;48.086;11.632;2023-03-11T10:44:33;14.10;59.80
22430;DHT22;11382;48.086;11.632;2023-03-11T10:47:02;14.80;59.20
22430;DHT22;11382;48.086;11.632;2023-03-11T10:49:31;13.90;57.80
22430;DHT22;11382;48.086;11.632;2023-03-11T10:52:02;14.00;60.10
22430;DHT22;11382;48.086;11.632;2023-03-11T10:54:31;14.20;60.70
22430;DHT22;11382;48.086;11.632;2023-03-11T10:57:03;13.50;58.40
22430;DHT22;11382;48.086;11.632;2023-03-11T10:59:33;13.40;58.40
22430;DHT22;11382;48.086;11.632;2023-03-11T11:02:21;13.00;59.80
22430;DHT22;11382;48.086;11.632;2023-03-11T11:05:05;12.80;60.40
22430;DHT22;11382;48.086;11.632;2023-03-11T11:07:35;12.80;59.80
22430;DHT22;11382;48.086;11.632;2023-03-11T11:10:16;12.20;59.90
22430;DHT22;11382;48.086;11.632;2023-03-11T11:12:53;11.80;60.70
22430;DHT22;11382;48.086;11.632;2023-03-11T11:15:23;11.70;60.00
22430;DHT22;11382;48.086;11.632;2023-03-11T11:17:52;12.60;61.00
22430;DHT22;11382;48.086;11.632;2023-03-11T11:20:23;12.50;59.80
22430;DHT22;11382;48.086;11.632;2023-03-11T11:22:52;12.60;60.00
22430;DHT22;11382;48.086;11.632;2023-03-11T11:25:27;12.20;60.90
22430;DHT22;11382;48.086;11.632;2023-03-11T11:27:58;12.70;60.70
22430;DHT22;11382;48.086;11.632;2023-03-11T11:30:27;13.70;59.60
22430;DHT22;11382;48.086;11.632;2023-03-11T11:32:56;13.90;59.80
22430;DHT22;11382;48.086;11.632;2023-03-11T11:35:48;13.60;61.20
22430;DHT22;11382;48.086;11.632;2023-03-11T11:38:20;13.90;60.50
22430;DHT22;11382;48.086;11.632;2023-03-11T11:40:50;14.50;59.70
22430;DHT22;11382;48.086;11.632;2023-03-11T11:43:23;14.00;59.40
22430;DHT22;11382;48.086;11.632;2023-03-11T11:45:55;14.20;62.80
22430;DHT22;11382;48.086;11.632;2023-03-11T11:48:31;13.80;61.30
22430;DHT22;11382;48.086;11.632;2023-03-11T11:51:05;13.80;62.50
22430;DHT22;11382;48.086;11.632;2023-03-11T11:53:40;13.50;63.20
22430;DHT22;11382;48.086;11.632;2023-03-11T11:56:11;13.80;61.80
22430;DHT22;11382;48.086;11.632;2023-03-11T11:58:41;14.70;60.80
22430;DHT22;11382;48.086;11.632;2023-03-11T12:01:14;13.80;59.40
22430;DHT22;11382;48.086;11.632;2023-03-11T12:04:04;13.20;62.90
22430;DHT22;11382;48.086;11.632;2023-03-11T12:06:43;12.70;62.60
22430;DHT22;11382;48.086;11.632;2023-03-11T12:09:36;11.80;61.60
22430;DHT22;11382;48.086;11.632;2023-03-11T12:12:16;10.70;65.00
22430;DHT22;11382;48.086;11.632;2023-03-11T12:14:55;9.70;68.50
22430;DHT22;11382;48.086;11.632;2023-03-11T12:17:25;8.80;70.00
22430;DHT22;11382;48.086;11.632;2023-03-11T12:19:56;8.10;71.00
22430;DHT22;11382;48.086;11.632;2023-03-11T12:26:00;7.50;74.10
22430;DHT22;11382;48.086;11.632;2023-03-11T12:28:38;7.30;75.20
22430;DHT22;11382;48.086;11.632;2023-03-11T12:31:10;7.30;74.40
22430;DHT22;11382;48.086;11.632;2023-03-11T12:34:00;7.20;74.60
22430;DHT22;11382;48.086;11.632;2023-03-11T12:36:30;7.40;76.90
22430;DHT22;11382;48.086;11.632;2023-03-11T12:39:02;7.30;75.40
22430;DHT22;11382;48.086;11.632;2023-03-11T12:41:33;7.50;77.50
22430;DHT22;11382;48.086;11.632;2023-03-11T12:44:21;7.40;75.50
22430;DHT22;11382;48.086;11.632;2023-03-11T12:47:19;7.30;77.10
22430;DHT22;11382;48.086;11.632;2023-03-11T12:49:49;7.10;75.70
22430;DHT22;11382;48.086;11.632;2023-03-11T12:52:25;7.00;77.20
22430;DHT22;11382;48.086;11.632;2023-03-11T12:58:35;7.10;78.60
22430;DHT22;11382;48.086;11.632;2023-03-11T13:01:23;6.90;79.60
22430;DHT22;11382;48.086;11.632;2023-03-11T13:04:05;7.10;81.00
22430;DHT22;11382;48.086;11.632;2023-03-11T13:07:00;7.60;80.70
22430;DHT22;11382;48.086;11.632;2023-03-11T13:09:31;7.80;78.50
22430;DHT22;11382;48.086;11.632;2023-03-11T13:11:59;7.80;76.90
22430;DHT22;11382;48.086;11.632;2023-03-11T13:14:31;7.80;79.90
22430;DHT22;11382;48.086;11.632;2023-03-11T13:17:32;7.80;80.00
22430;DHT22;11382;48.086;11.632;2023-03-11T13:20:02;7.90;78.30
22430;DHT22;11382;48.086;11.632;2023-03-11T13:25:41;7.80;76.40
22430;DHT22;11382;48.086;11.632;2023-03-11T13:28:23;7.40;78.50
22430;DHT22;11382;48.086;11.632;2023-03-11T13:31:02;7.40;78.50
22430;DHT22;11382;48.086;11.632;2023-03-11T13:33:47;7.50;78.10
22430;DHT22;11382;48.086;11.632;2023-03-11T13:39:20;7.50;78.90
22430;DHT22;11382;48.086;11.632;2023-03-11T13:41:49;7.50;80.10
22430;DHT22;11382;48.086;11.632;2023-03-11T13:44:25;7.30;79.60
22430;DHT22;11382;48.086;11.632;2023-03-11T13:46:58;7.30;78.50
22430;DHT22;11382;48.086;11.632;2023-03-11T13:49:30;7.50;79.30
22430;DHT22;11382;48.086;11.632;2023-03-11T13:52:02;7.50;79.70
22430;DHT22;11382;48.086;11.632;2023-03-11T13:54:38;7.60;79.00
22430;DHT22;11382;48.086;11.632;2023-03-11T13:57:25;7.60;79.70
22430;DHT22;11382;48.086;11.632;2023-03-11T13:59:55;7.60;77.80
22430;DHT22;11382;48.086;11.632;2023-03-11T14:02:25;7.60;79.30
22430;DHT22;11382;48.086;11.632;2023-03-11T14:04:56;7.50;77.10
22430;DHT22;11382;48.086;11.632;2023-03-11T14:07:28;7.20;77.40
22430;DHT22;11382;48.086;11.632;2023-03-11T14:10:21;7.10;79.60
22430;DHT22;11382;48.086;11.632;2023-03-11T14:12:49;7.40;80.10
22430;DHT22;11382;48.086;11.632;2023-03-11T14:15:20;7.50;77.00
22430;DHT22;11382;48.086;11.632;2023-03-11T14:17:50;7.40;79.00
22430;DHT22;11382;48.086;11.632;2023-03-11T14:20:19;7.40;80.10
22430;DHT22;11382;48.086;11.632;2023-03-11T14:22:53;7.60;78.40
22430;DHT22;11382;48.086;11.632;2023-03-11T14:25:24;7.50;77.50
22430;DHT22;11382;48.086;11.632;2023-03-11T14:27:54;7.60;78.40
22430;DHT22;11382;48.086;11.632;2023-03-11T14:30:25;7.50;78.80
22430;DHT22;11382;48.086;11.632;2023-03-11T14:32:59;7.60;77.30
22430;DHT22;11382;48.086;11.632;2023-03-11T14:35:28;7.40;77.50
22430;DHT22;11382;48.086;11.632;2023-03-11T14:37:59;7.40;79.10
22430;DHT22;11382;48.086;11.632;2023-03-11T14:40:29;7.30;80.30
22430;DHT22;11382;48.086;11.632;2023-03-11T14:42:59;7.30;80.40
22430;DHT22;11382;48.086;11.632;2023-03-11T14:45:29;7.30;80.80
22430;DHT22;11382;48.086;11.632;2023-03-11T14:48:01;7.20;79.20
22430;DHT22;11382;48.086;11.632;2023-03-11T14:50:31;7.00;80.50
22430;DHT22;11382;48.086;11.632;2023-03-11T14:53:04;6.90;81.00
22430;DHT22;11382;48.086;11.632;2023-03-11T14:55:37;7.10;81.60
22430;DHT22;11382;48.086;11.632;2023-03-11T14:58:12;7.00;79.60
22430;DHT22;11382;48.086;11.632;2023-03-11T15:00:45;7.00;80.80
22430;DHT22;11382;48.086;11.632;2023-03-11T15:03:21;7.00;80.70
22430;DHT22;11382;48.086;11.632;2023-03-11T15:05:51;7.10;80.40
22430;DHT22;11382;48.086;11.632;2023-03-11T15:08:23;7.10;79.30
22430;DHT22;11382;48.086;11.632;2023-03-11T15:11:00;6.80;78.90
22430;DHT22;11382;48.086;11.632;2023-03-11T15:13:29;6.50;79.00
22430;DHT22;11382;48.086;11.632;2023-03-11T15:15:58;6.40;79.80
22430;DHT22;11382;48.086;11.632;2023-03-11T15:18:29;6.40;80.30
22430;DHT22;11382;48.086;11.632;2023-03-11T15:21:02;6.30;80.60
22430;DHT22;11382;48.086;11.632;2023-03-11T15:23:34;6.50;81.60
22430;DHT22;11382;48.086;11.632;2023-03-11T15:26:03;6.40;82.00
22430;DHT22;11382;48.086;11.632;2023-03-11T15:28:33;6.30;82.60
22430;DHT22;11382;48.086;11.632;2023-03-11T15:31:23;6.30;82.30
22430;DHT22;11382;48.086;11.632;2023-03-11T15:34:18;6.20;82.30
22430;DHT22;11382;48.086;11.632;2023-03-11T15:37:05;6.30;83.30
22430;DHT22;11382;48.086;11.632;2023-03-11T15:39:48;6.50;83.60
22430;DHT22;11382;48.086;11.632;2023-03-11T15:42:20;6.50;83.00
22430;DHT22;11382;48.086;11.632;2023-03-11T15:45:10;6.50;83.30
22430;DHT22;11382;48.086;11.632;2023-03-11T15:47:39;6.50;82.40
22430;DHT22;11382;48.086;11.632;2023-03-11T15:50:20;6.30;83.40
22430;DHT22;11382;48.086;11.632;2023-03-11T15:52:56;6.10;83.80
22430;DHT22;11382;48.086;11.632;2023-03-11T15:55:26;5.80;83.20
22430;DHT22;11382;48.086;11.632;2023-03-11T15:57:59;5.60;85.40
22430;DHT22;11382;48.086;11.632;2023-03-11T16:00:28;5.40;85.50
22430;DHT22;11382;48.086;11.632;2023-03-11T16:02:56;5.40;87.10
22430;DHT22;11382;48.086;11.632;2023-03-11T16:05:24;5.30;86.50
22430;DHT22;11382;48.086;11.632;2023-03-11T16:07:52;5.30;87.00